Shinebone, Alabama
Current Conditions -  °F | °C
As of 3:53 AM on Monday 22 Dec 2014 (Local Time) from KANB Reporting Station
Overcast Overcast  
Wind Chill: 45°   Ceiling: 800
Heat Index: 49°   Visibility: 10mi
Dew Point: 46°   Wind: 9mph
Humidity: 90%   Direction: 90°E
Pressure: 29.99"   Gusts: NA
Location:  33.3533°N, 85.7343°W
Report Text: KANB 220953Z AUTO 09008KT 10SM OVC008 09/08 A2999 RMK AO2 SLP157 T00940078
Loading
Personal Weather Stations






























Interactive Weather Map New forecast layout! Learn more

10-Day Weather Forecast

Advertisements
Track Severe Weather on mobile